sensor_id;sensor_type;location;lat;lon;timestamp;pressure;altitude;pressure_sealevel;temperature;humidity
24620;BME280;12763;55.802;37.404;2022-10-16T00:01:59;100697.53;;;8.60;63.97
24620;BME280;12763;55.802;37.404;2022-10-16T00:04:25;100696.69;;;8.52;63.85
24620;BME280;12763;55.802;37.404;2022-10-16T00:06:59;100696.03;;;8.50;64.15
24620;BME280;12763;55.802;37.404;2022-10-16T00:09:28;100703.22;;;8.51;64.10
24620;BME280;12763;55.802;37.404;2022-10-16T00:11:58;100706.00;;;8.43;64.59
24620;BME280;12763;55.802;37.404;2022-10-16T00:14:24;100704.16;;;8.35;64.80
24620;BME280;12763;55.802;37.404;2022-10-16T00:17:03;100710.88;;;8.33;65.17
24620;BME280;12763;55.802;37.404;2022-10-16T00:19:29;100715.00;;;8.37;64.79
24620;BME280;12763;55.802;37.404;2022-10-16T00:21:56;100721.53;;;8.27;65.05
24620;BME280;12763;55.802;37.404;2022-10-16T00:24:41;100712.59;;;8.34;65.10
24620;BME280;12763;55.802;37.404;2022-10-16T00:27:08;100719.31;;;8.31;65.12
24620;BME280;12763;55.802;37.404;2022-10-16T00:29:34;100718.06;;;8.17;65.62
24620;BME280;12763;55.802;37.404;2022-10-16T00:32:06;100713.59;;;8.24;65.63
24620;BME280;12763;55.802;37.404;2022-10-16T00:34:48;100718.44;;;8.31;65.27
24620;BME280;12763;55.802;37.404;2022-10-16T00:37:14;100716.88;;;8.20;65.49
24620;BME280;12763;55.802;37.404;2022-10-16T00:39:40;100712.56;;;8.17;65.65
24620;BME280;12763;55.802;37.404;2022-10-16T00:42:12;100715.69;;;8.22;65.73
24620;BME280;12763;55.802;37.404;2022-10-16T00:44:47;100715.69;;;8.22;65.53
24620;BME280;12763;55.802;37.404;2022-10-16T00:47:25;100721.66;;;8.26;65.54
24620;BME280;12763;55.802;37.404;2022-10-16T00:49:58;100722.53;;;8.26;64.98
24620;BME280;12763;55.802;37.404;2022-10-16T00:52:30;100725.28;;;8.18;65.51
24620;BME280;12763;55.802;37.404;2022-10-16T00:54:57;100724.63;;;8.08;65.78
24620;BME280;12763;55.802;37.404;2022-10-16T00:57:29;100733.53;;;8.18;65.50
24620;BME280;12763;55.802;37.404;2022-10-16T00:59:59;100726.50;;;8.16;65.72
24620;BME280;12763;55.802;37.404;2022-10-16T01:02:28;100729.78;;;8.11;65.95
24620;BME280;12763;55.802;37.404;2022-10-16T01:05:01;100734.09;;;8.14;65.97
24620;BME280;12763;55.802;37.404;2022-10-16T01:07:53;100729.59;;;8.13;66.06
24620;BME280;12763;55.802;37.404;2022-10-16T01:10:40;100723.59;;;8.09;66.22
24620;BME280;12763;55.802;37.404;2022-10-16T01:13:09;100732.56;;;8.03;66.14
24620;BME280;12763;55.802;37.404;2022-10-16T01:18:37;100738.22;;;8.02;66.41
24620;BME280;12763;55.802;37.404;2022-10-16T01:21:42;100742.69;;;8.03;66.51
24620;BME280;12763;55.802;37.404;2022-10-16T01:29:39;100742.69;;;7.95;66.29
24620;BME280;12763;55.802;37.404;2022-10-16T01:32:33;100741.66;;;7.96;66.52
24620;BME280;12763;55.802;37.404;2022-10-16T01:35:16;100743.72;;;7.94;66.76
24620;BME280;12763;55.802;37.404;2022-10-16T01:37:51;100744.25;;;7.97;66.47
24620;BME280;12763;55.802;37.404;2022-10-16T01:40:24;100744.91;;;7.91;66.79
24620;BME280;12763;55.802;37.404;2022-10-16T01:43:08;100747.00;;;7.81;67.05
24620;BME280;12763;55.802;37.404;2022-10-16T01:45:37;100742.84;;;7.85;66.79
24620;BME280;12763;55.802;37.404;2022-10-16T01:48:09;100746.66;;;7.84;66.83
24620;BME280;12763;55.802;37.404;2022-10-16T01:50:40;100749.41;;;7.84;66.83
24620;BME280;12763;55.802;37.404;2022-10-16T01:53:14;100749.56;;;7.91;66.72
24620;BME280;12763;55.802;37.404;2022-10-16T01:55:47;100745.78;;;7.84;66.80
24620;BME280;12763;55.802;37.404;2022-10-16T01:58:15;100747.84;;;7.74;67.17
24620;BME280;12763;55.802;37.404;2022-10-16T02:00:46;100749.41;;;7.84;66.75
24620;BME280;12763;55.802;37.404;2022-10-16T02:03:15;100742.53;;;7.80;66.95
24620;BME280;12763;55.802;37.404;2022-10-16T02:08:08;100748.16;;;7.70;67.27
24620;BME280;12763;55.802;37.404;2022-10-16T02:10:37;100746.63;;;7.68;67.50
24620;BME280;12763;55.802;37.404;2022-10-16T02:13:27;100750.44;;;7.67;67.71
24620;BME280;12763;55.802;37.404;2022-10-16T02:15:57;100750.75;;;7.56;68.04
24620;BME280;12763;55.802;37.404;2022-10-16T02:18:23;100755.91;;;7.43;69.01
24620;BME280;12763;55.802;37.404;2022-10-16T02:26:13;100754.50;;;7.31;69.64
24620;BME280;12763;55.802;37.404;2022-10-16T02:28:48;100754.16;;;7.26;69.80
24620;BME280;12763;55.802;37.404;2022-10-16T02:31:23;100758.56;;;7.19;70.23
24620;BME280;12763;55.802;37.404;2022-10-16T02:34:03;100759.22;;;7.13;70.57
24620;BME280;12763;55.802;37.404;2022-10-16T02:36:36;100757.19;;;7.06;70.68
24620;BME280;12763;55.802;37.404;2022-10-16T02:39:06;100760.25;;;7.03;70.67
24620;BME280;12763;55.802;37.404;2022-10-16T02:41:35;100765.00;;;6.93;71.11
24620;BME280;12763;55.802;37.404;2022-10-16T02:44:05;100766.75;;;6.94;71.22
24620;BME280;12763;55.802;37.404;2022-10-16T02:46:36;100763.31;;;6.92;71.11
24620;BME280;12763;55.802;37.404;2022-10-16T02:49:03;100766.75;;;6.94;71.06
24620;BME280;12763;55.802;37.404;2022-10-16T02:51:34;100771.03;;;6.97;71.04
24620;BME280;12763;55.802;37.404;2022-10-16T02:54:00;100769.16;;;6.97;71.40
24620;BME280;12763;55.802;37.404;2022-10-16T02:56:30;100767.72;;;6.85;71.41
24620;BME280;12763;55.802;37.404;2022-10-16T02:59:08;100766.03;;;6.84;71.80
24620;BME280;12763;55.802;37.404;2022-10-16T03:01:38;100770.66;;;6.84;71.99
24620;BME280;12763;55.802;37.404;2022-10-16T03:04:05;100781.63;;;6.84;71.58
24620;BME280;12763;55.802;37.404;2022-10-16T03:06:31;100780.25;;;6.88;71.66
24620;BME280;12763;55.802;37.404;2022-10-16T03:08:58;100781.00;;;6.98;71.58
24620;BME280;12763;55.802;37.404;2022-10-16T03:11:24;100782.00;;;6.97;71.08
24620;BME280;12763;55.802;37.404;2022-10-16T03:13:53;100782.19;;;6.95;71.40
24620;BME280;12763;55.802;37.404;2022-10-16T03:16:22;100786.78;;;6.87;71.60
24620;BME280;12763;55.802;37.404;2022-10-16T03:18:51;100787.25;;;6.82;71.86
24620;BME280;12763;55.802;37.404;2022-10-16T03:21:17;100793.91;;;6.72;72.33
24620;BME280;12763;55.802;37.404;2022-10-16T03:23:44;100786.53;;;6.72;72.39
24620;BME280;12763;55.802;37.404;2022-10-16T03:26:10;100789.94;;;6.66;72.64
24620;BME280;12763;55.802;37.404;2022-10-16T03:28:39;100789.03;;;6.58;72.72
24620;BME280;12763;55.802;37.404;2022-10-16T03:31:06;100790.16;;;6.47;73.10
24620;BME280;12763;55.802;37.404;2022-10-16T03:33:32;100789.16;;;6.48;73.53
24620;BME280;12763;55.802;37.404;2022-10-16T03:36:02;100795.69;;;6.55;73.19
24620;BME280;12763;55.802;37.404;2022-10-16T03:38:29;100785.19;;;6.42;73.58
24620;BME280;12763;55.802;37.404;2022-10-16T03:40:56;100793.28;;;6.52;73.10
24620;BME280;12763;55.802;37.404;2022-10-16T03:43:22;100792.00;;;6.38;73.79
24620;BME280;12763;55.802;37.404;2022-10-16T03:45:52;100795.28;;;6.42;73.62
24620;BME280;12763;55.802;37.404;2022-10-16T03:48:20;100795.56;;;6.31;74.29
24620;BME280;12763;55.802;37.404;2022-10-16T03:50:46;100796.34;;;6.49;73.55
24620;BME280;12763;55.802;37.404;2022-10-16T03:53:15;100788.09;;;6.49;73.39
24620;BME280;12763;55.802;37.404;2022-10-16T03:55:45;100800.00;;;6.58;73.08
24620;BME280;12763;55.802;37.404;2022-10-16T03:58:12;100798.44;;;6.55;73.23
24620;BME280;12763;55.802;37.404;2022-10-16T04:00:47;100796.72;;;6.54;73.14
24620;BME280;12763;55.802;37.404;2022-10-16T04:03:22;100798.56;;;6.45;73.53
24620;BME280;12763;55.802;37.404;2022-10-16T04:06:01;100802.53;;;6.51;73.40
24620;BME280;12763;55.802;37.404;2022-10-16T04:08:28;100801.91;;;6.57;72.95
24620;BME280;12763;55.802;37.404;2022-10-16T04:11:00;100805.31;;;6.59;73.02
24620;BME280;12763;55.802;37.404;2022-10-16T04:13:28;100796.94;;;6.61;72.96
24620;BME280;12763;55.802;37.404;2022-10-16T04:15:55;100804.38;;;6.68;72.52
24620;BME280;12763;55.802;37.404;2022-10-16T04:18:30;100799.53;;;6.62;72.98
24620;BME280;12763;55.802;37.404;2022-10-16T04:20:57;100803.63;;;6.66;72.42
24620;BME280;12763;55.802;37.404;2022-10-16T04:23:27;100797.13;;;6.67;72.90
24620;BME280;12763;55.802;37.404;2022-10-16T04:25:57;100799.19;;;6.65;72.80
24620;BME280;12763;55.802;37.404;2022-10-16T04:28:23;100795.59;;;6.65;73.08
24620;BME280;12763;55.802;37.404;2022-10-16T04:30:54;100811.88;;;6.66;72.97
24620;BME280;12763;55.802;37.404;2022-10-16T04:33:23;100804.13;;;6.62;72.98
24620;BME280;12763;55.802;37.404;2022-10-16T04:35:59;100819.09;;;6.67;73.27
24620;BME280;12763;55.802;37.404;2022-10-16T04:38:34;100813.06;;;6.64;72.87
24620;BME280;12763;55.802;37.404;2022-10-16T04:41:00;100811.19;;;6.64;72.90
24620;BME280;12763;55.802;37.404;2022-10-16T04:43:27;100820.81;;;6.68;72.88
24620;BME280;12763;55.802;37.404;2022-10-16T04:45:53;100813.00;;;6.81;72.45
24620;BME280;12763;55.802;37.404;2022-10-16T04:48:26;100815.88;;;6.80;72.46
24620;BME280;12763;55.802;37.404;2022-10-16T04:50:53;100823.28;;;6.79;72.53
24620;BME280;12763;55.802;37.404;2022-10-16T04:53:19;100819.72;;;6.87;72.30
24620;BME280;12763;55.802;37.404;2022-10-16T04:55:45;100824.16;;;6.88;72.33
24620;BME280;12763;55.802;37.404;2022-10-16T04:58:12;100821.25;;;6.89;72.19
24620;BME280;12763;55.802;37.404;2022-10-16T05:00:38;100819.22;;;6.91;72.38
24620;BME280;12763;55.802;37.404;2022-10-16T05:03:08;100823.88;;;6.99;72.05
24620;BME280;12763;55.802;37.404;2022-10-16T05:05:47;100818.47;;;7.15;71.66
24620;BME280;12763;55.802;37.404;2022-10-16T05:08:14;100819.75;;;6.95;72.25
24620;BME280;12763;55.802;37.404;2022-10-16T05:10:42;100826.78;;;6.97;72.00
24620;BME280;12763;55.802;37.404;2022-10-16T05:13:10;100823.72;;;7.00;71.65
24620;BME280;12763;55.802;37.404;2022-10-16T05:15:36;100820.69;;;7.12;71.29
24620;BME280;12763;55.802;37.404;2022-10-16T05:18:03;100823.97;;;7.15;71.31
24620;BME280;12763;55.802;37.404;2022-10-16T05:20:30;100828.38;;;7.08;71.53
24620;BME280;12763;55.802;37.404;2022-10-16T05:22:56;100825.31;;;7.19;71.18
24620;BME280;12763;55.802;37.404;2022-10-16T05:25:25;100830.69;;;7.29;70.80
24620;BME280;12763;55.802;37.404;2022-10-16T05:27:53;100827.78;;;7.30;70.76
24620;BME280;12763;55.802;37.404;2022-10-16T05:30:22;100838.25;;;7.35;70.41
24620;BME280;12763;55.802;37.404;2022-10-16T05:32:51;100828.84;;;7.37;70.42
24620;BME280;12763;55.802;37.404;2022-10-16T05:35:19;100835.59;;;7.59;69.87
24620;BME280;12763;55.802;37.404;2022-10-16T05:37:46;100835.94;;;7.64;69.65
24620;BME280;12763;55.802;37.404;2022-10-16T05:40:14;100837.84;;;7.72;69.41
24620;BME280;12763;55.802;37.404;2022-10-16T05:42:44;100848.13;;;7.69;69.29
24620;BME280;12763;55.802;37.404;2022-10-16T05:45:14;100841.78;;;7.77;69.15
24620;BME280;12763;55.802;37.404;2022-10-16T05:47:43;100841.09;;;7.75;69.30
24620;BME280;12763;55.802;37.404;2022-10-16T05:50:12;100836.47;;;7.76;69.24
24620;BME280;12763;55.802;37.404;2022-10-16T05:52:41;100838.03;;;7.78;69.23
24620;BME280;12763;55.802;37.404;2022-10-16T05:55:11;100848.84;;;7.96;68.63
24620;BME280;12763;55.802;37.404;2022-10-16T05:57:37;100849.38;;;8.07;68.26
24620;BME280;12763;55.802;37.404;2022-10-16T06:00:07;100850.78;;;8.11;68.00
24620;BME280;12763;55.802;37.404;2022-10-16T06:02:41;100841.84;;;8.25;67.33
24620;BME280;12763;55.802;37.404;2022-10-16T06:05:11;100840.47;;;8.30;67.46
24620;BME280;12763;55.802;37.404;2022-10-16T06:07:37;100843.06;;;8.39;67.35
24620;BME280;12763;55.802;37.404;2022-10-16T06:10:04;100859.03;;;8.44;66.97
24620;BME280;12763;55.802;37.404;2022-10-16T06:12:38;100845.28;;;8.44;66.83
24620;BME280;12763;55.802;37.404;2022-10-16T06:15:04;100843.53;;;8.43;66.79
24620;BME280;12763;55.802;37.404;2022-10-16T06:17:30;100845.81;;;8.47;66.84
24620;BME280;12763;55.802;37.404;2022-10-16T06:19:57;100843.72;;;8.25;67.30
24620;BME280;12763;55.802;37.404;2022-10-16T06:22:24;100845.44;;;8.34;67.03
24620;BME280;12763;55.802;37.404;2022-10-16T06:24:50;100845.63;;;8.41;66.71
24620;BME280;12763;55.802;37.404;2022-10-16T06:27:19;100848.22;;;8.50;66.53
24620;BME280;12763;55.802;37.404;2022-10-16T06:29:49;100848.03;;;8.52;66.35
24620;BME280;12763;55.802;37.404;2022-10-16T06:32:20;100852.63;;;8.59;66.16
24620;BME280;12763;55.802;37.404;2022-10-16T06:34:49;100852.13;;;8.64;66.04
24620;BME280;12763;55.802;37.404;2022-10-16T06:37:28;100854.53;;;8.67;65.49
24620;BME280;12763;55.802;37.404;2022-10-16T06:39:57;100851.78;;;8.67;65.62
24620;BME280;12763;55.802;37.404;2022-10-16T06:42:27;100853.78;;;8.81;65.37
24620;BME280;12763;55.802;37.404;2022-10-16T06:45:00;100855.19;;;8.85;65.19
24620;BME280;12763;55.802;37.404;2022-10-16T06:47:33;100854.59;;;8.98;65.17
24620;BME280;12763;55.802;37.404;2022-10-16T06:49:59;100863.31;;;9.17;64.46
24620;BME280;12763;55.802;37.404;2022-10-16T06:52:36;100866.94;;;9.18;64.35
24620;BME280;12763;55.802;37.404;2022-10-16T06:55:03;100862.81;;;9.22;64.05
24620;BME280;12763;55.802;37.404;2022-10-16T06:57:30;100856.28;;;9.54;63.42
24620;BME280;12763;55.802;37.404;2022-10-16T06:59:57;100855.91;;;9.57;63.38
24620;BME280;12763;55.802;37.404;2022-10-16T07:02:23;100865.81;;;9.74;62.67
24620;BME280;12763;55.802;37.404;2022-10-16T07:04:49;100867.59;;;9.89;62.47
24620;BME280;12763;55.802;37.404;2022-10-16T07:07:16;100857.84;;;9.79;62.25
24620;BME280;12763;55.802;37.404;2022-10-16T07:09:49;100863.56;;;9.77;62.29
24620;BME280;12763;55.802;37.404;2022-10-16T07:12:22;100862.09;;;9.89;62.18
24620;BME280;12763;55.802;37.404;2022-10-16T07:14:51;100857.75;;;9.95;61.81
24620;BME280;12763;55.802;37.404;2022-10-16T07:17:18;100857.97;;;10.16;61.52
24620;BME280;12763;55.802;37.404;2022-10-16T07:19:47;100861.78;;;10.15;61.29
24620;BME280;12763;55.802;37.404;2022-10-16T07:22:17;100859.16;;;9.91;62.07
24620;BME280;12763;55.802;37.404;2022-10-16T07:24:43;100858.06;;;9.77;62.50
24620;BME280;12763;55.802;37.404;2022-10-16T07:27:10;100851.31;;;9.80;62.78
24620;BME280;12763;55.802;37.404;2022-10-16T07:29:38;100865.41;;;9.85;62.49
24620;BME280;12763;55.802;37.404;2022-10-16T07:32:04;100867.09;;;9.86;62.54
24620;BME280;12763;55.802;37.404;2022-10-16T07:34:30;100863.25;;;9.95;62.34
24620;BME280;12763;55.802;37.404;2022-10-16T07:36:57;100863.91;;;10.05;62.45
24620;BME280;12763;55.802;37.404;2022-10-16T07:39:23;100866.16;;;10.47;60.88
24620;BME280;12763;55.802;37.404;2022-10-16T07:41:52;100863.94;;;10.65;60.16
24620;BME280;12763;55.802;37.404;2022-10-16T07:44:20;100867.22;;;10.60;59.74
24620;BME280;12763;55.802;37.404;2022-10-16T07:46:49;100867.56;;;10.95;59.00
24620;BME280;12763;55.802;37.404;2022-10-16T07:49:15;100873.75;;;10.97;58.67
24620;BME280;12763;55.802;37.404;2022-10-16T07:51:41;100871.41;;;11.23;58.58
24620;BME280;12763;55.802;37.404;2022-10-16T07:54:09;100870.44;;;11.45;57.83
24620;BME280;12763;55.802;37.404;2022-10-16T07:56:38;100859.66;;;11.50;57.71
24620;BME280;12763;55.802;37.404;2022-10-16T07:59:04;100862.22;;;11.52;57.50
24620;BME280;12763;55.802;37.404;2022-10-16T08:01:35;100870.81;;;11.57;57.15
24620;BME280;12763;55.802;37.404;2022-10-16T08:04:01;100874.44;;;11.43;57.78
24620;BME280;12763;55.802;37.404;2022-10-16T08:06:28;100871.84;;;11.56;57.16
24620;BME280;12763;55.802;37.404;2022-10-16T08:08:59;100871.09;;;11.47;57.33
24620;BME280;12763;55.802;37.404;2022-10-16T08:11:26;100867.34;;;11.55;57.19
24620;BME280;12763;55.802;37.404;2022-10-16T08:13:52;100864.97;;;11.52;56.85
24620;BME280;12763;55.802;37.404;2022-10-16T08:16:18;100870.13;;;11.69;56.67
24620;BME280;12763;55.802;37.404;2022-10-16T08:18:45;100865.38;;;11.99;55.99
24620;BME280;12763;55.802;37.404;2022-10-16T08:21:20;100859.06;;;11.69;56.21
24620;BME280;12763;55.802;37.404;2022-10-16T08:23:47;100869.16;;;11.77;55.92
24620;BME280;12763;55.802;37.404;2022-10-16T08:26:17;100867.41;;;11.91;55.87
24620;BME280;12763;55.802;37.404;2022-10-16T08:28:51;100863.06;;;12.24;55.11
24620;BME280;12763;55.802;37.404;2022-10-16T08:31:21;100869.75;;;12.08;54.97
24620;BME280;12763;55.802;37.404;2022-10-16T08:33:47;100861.22;;;11.89;55.55
24620;BME280;12763;55.802;37.404;2022-10-16T08:36:24;100854.78;;;12.24;54.57
24620;BME280;12763;55.802;37.404;2022-10-16T08:38:51;100855.50;;;12.32;54.18
24620;BME280;12763;55.802;37.404;2022-10-16T08:44:37;100856.16;;;12.56;53.44
24620;BME280;12763;55.802;37.404;2022-10-16T08:47:22;100853.69;;;12.67;53.08
24620;BME280;12763;55.802;37.404;2022-10-16T08:49:59;100854.69;;;12.87;51.65
24620;BME280;12763;55.802;37.404;2022-10-16T08:52:31;100856.75;;;12.30;53.74
24620;BME280;12763;55.802;37.404;2022-10-16T08:55:01;100853.25;;;12.21;53.71
24620;BME280;12763;55.802;37.404;2022-10-16T08:57:28;100849.25;;;12.45;53.10
24620;BME280;12763;55.802;37.404;2022-10-16T09:00:00;100857.75;;;12.22;52.23
24620;BME280;12763;55.802;37.404;2022-10-16T09:02:57;100853.78;;;12.53;52.32
24620;BME280;12763;55.802;37.404;2022-10-16T09:13:23;100842.19;;;12.70;52.26
24620;BME280;12763;55.802;37.404;2022-10-16T09:15:59;100840.81;;;12.81;51.58
24620;BME280;12763;55.802;37.404;2022-10-16T09:21:33;100850.94;;;13.29;49.90
24620;BME280;12763;55.802;37.404;2022-10-16T09:24:21;100842.28;;;13.45;49.18
24620;BME280;12763;55.802;37.404;2022-10-16T09:26:50;100833.22;;;13.24;49.80
24620;BME280;12763;55.802;37.404;2022-10-16T09:29:19;100838.16;;;13.82;48.94
24620;BME280;12763;55.802;37.404;2022-10-16T09:31:57;100845.13;;;14.39;47.62
24620;BME280;12763;55.802;37.404;2022-10-16T09:34:36;100842.78;;;13.62;48.21
24620;BME280;12763;55.802;37.404;2022-10-16T09:37:12;100834.41;;;14.16;46.96
24620;BME280;12763;55.802;37.404;2022-10-16T09:39:46;100846.94;;;13.92;46.71
24620;BME280;12763;55.802;37.404;2022-10-16T09:45:23;100851.38;;;13.74;46.07
24620;BME280;12763;55.802;37.404;2022-10-16T09:47:50;100819.88;;;14.14;46.35
24620;BME280;12763;55.802;37.404;2022-10-16T09:50:27;100831.44;;;14.31;45.14
24620;BME280;12763;55.802;37.404;2022-10-16T09:53:10;100815.19;;;14.21;46.14
24620;BME280;12763;55.802;37.404;2022-10-16T09:55:48;100833.63;;;14.61;44.16
24620;BME280;12763;55.802;37.404;2022-10-16T09:58:20;100827.00;;;14.82;44.75
24620;BME280;12763;55.802;37.404;2022-10-16T10:00:53;100820.38;;;14.63;44.20
24620;BME280;12763;55.802;37.404;2022-10-16T10:06:25;100818.88;;;14.94;43.78
24620;BME280;12763;55.802;37.404;2022-10-16T10:08:54;100831.25;;;14.78;43.93
24620;BME280;12763;55.802;37.404;2022-10-16T10:14:17;100815.66;;;16.05;42.28
24620;BME280;12763;55.802;37.404;2022-10-16T10:16:47;100818.31;;;16.56;42.20
24620;BME280;12763;55.802;37.404;2022-10-16T10:19:23;100814.91;;;16.23;42.21
24620;BME280;12763;55.802;37.404;2022-10-16T10:21:51;100811.59;;;16.32;42.24
24620;BME280;12763;55.802;37.404;2022-10-16T10:24:19;100807.56;;;16.84;41.38
24620;BME280;12763;55.802;37.404;2022-10-16T10:29:31;100804.81;;;17.39;39.39
24620;BME280;12763;55.802;37.404;2022-10-16T10:34:45;100812.31;;;17.02;40.38
24620;BME280;12763;55.802;37.404;2022-10-16T10:40:23;100807.94;;;17.67;40.03
24620;BME280;12763;55.802;37.404;2022-10-16T10:43:01;100789.31;;;18.20;38.35
24620;BME280;12763;55.802;37.404;2022-10-16T10:45:42;100802.44;;;18.08;38.16
24620;BME280;12763;55.802;37.404;2022-10-16T10:48:17;100797.75;;;17.00;39.58
24620;BME280;12763;55.802;37.404;2022-10-16T10:51:00;100807.69;;;17.69;38.56
24620;BME280;12763;55.802;37.404;2022-10-16T11:08:22;100800.28;;;19.84;34.51
24620;BME280;12763;55.802;37.404;2022-10-16T11:11:30;100791.34;;;20.27;34.40
24620;BME280;12763;55.802;37.404;2022-10-16T11:19:49;100787.06;;;21.63;33.00
24620;BME280;12763;55.802;37.404;2022-10-16T11:25:18;100786.88;;;21.48;32.13
24620;BME280;12763;55.802;37.404;2022-10-16T11:28:11;100788.59;;;21.32;32.50
24620;BME280;12763;55.802;37.404;2022-10-16T11:30:52;100782.75;;;21.77;32.59
24620;BME280;12763;55.802;37.404;2022-10-16T11:41:43;100787.81;;;19.64;34.60
24620;BME280;12763;55.802;37.404;2022-10-16T11:44:19;100783.19;;;20.26;34.43
24620;BME280;12763;55.802;37.404;2022-10-16T11:47:19;100780.25;;;20.49;33.76
24620;BME280;12763;55.802;37.404;2022-10-16T11:49:43;100781.69;;;21.01;32.99
24620;BME280;12763;55.802;37.404;2022-10-16T11:52:40;100774.72;;;21.04;32.55
24620;BME280;12763;55.802;37.404;2022-10-16T11:55:40;100782.88;;;20.39;33.11
24620;BME280;12763;55.802;37.404;2022-10-16T12:03:46;100782.59;;;19.96;34.07
24620;BME280;12763;55.802;37.404;2022-10-16T12:09:01;100785.16;;;19.34;34.58
24620;BME280;12763;55.802;37.404;2022-10-16T12:11:35;100776.56;;;19.12;34.86
24620;BME280;12763;55.802;37.404;2022-10-16T12:16:59;100767.75;;;20.40;33.71
24620;BME280;12763;55.802;37.404;2022-10-16T12:19:28;100759.78;;;20.65;32.96
24620;BME280;12763;55.802;37.404;2022-10-16T12:22:00;100758.94;;;20.65;33.62
24620;BME280;12763;55.802;37.404;2022-10-16T12:24:38;100752.47;;;20.64;33.09
24620;BME280;12763;55.802;37.404;2022-10-16T12:27:32;100756.84;;;21.10;32.50
24620;BME280;12763;55.802;37.404;2022-10-16T12:30:06;100752.84;;;21.06;32.79
24620;BME280;12763;55.802;37.404;2022-10-16T12:33:03;100757.56;;;20.34;32.81
24620;BME280;12763;55.802;37.404;2022-10-16T12:35:35;100755.72;;;21.28;32.92
24620;BME280;12763;55.802;37.404;2022-10-16T12:38:16;100759.16;;;21.35;32.57
24620;BME280;12763;55.802;37.404;2022-10-16T12:40:45;100754.78;;;21.87;31.87
24620;BME280;12763;55.802;37.404;2022-10-16T12:51:42;100759.53;;;21.22;32.80
24620;BME280;12763;55.802;37.404;2022-10-16T12:54:31;100746.38;;;21.44;32.11
24620;BME280;12763;55.802;37.404;2022-10-16T12:57:19;100752.06;;;21.49;32.38
24620;BME280;12763;55.802;37.404;2022-10-16T13:00:24;100749.94;;;20.46;32.81
24620;BME280;12763;55.802;37.404;2022-10-16T13:11:26;100760.84;;;20.03;33.56
24620;BME280;12763;55.802;37.404;2022-10-16T13:16:49;100758.25;;;19.56;34.52
24620;BME280;12763;55.802;37.404;2022-10-16T13:22:17;100766.28;;;19.53;34.86
24620;BME280;12763;55.802;37.404;2022-10-16T13:28:04;100760.75;;;19.06;35.10
24620;BME280;12763;55.802;37.404;2022-10-16T13:30:50;100752.56;;;19.51;34.67
24620;BME280;12763;55.802;37.404;2022-10-16T13:35:55;100759.56;;;19.65;34.68
24620;BME280;12763;55.802;37.404;2022-10-16T13:38:30;100758.69;;;19.13;35.23
24620;BME280;12763;55.802;37.404;2022-10-16T13:41:04;100754.88;;;18.38;36.51
24620;BME280;12763;55.802;37.404;2022-10-16T13:46:19;100746.06;;;17.16;38.19
24620;BME280;12763;55.802;37.404;2022-10-16T13:48:57;100747.81;;;16.74;39.36
24620;BME280;12763;55.802;37.404;2022-10-16T13:51:25;100747.53;;;17.18;38.43
24620;BME280;12763;55.802;37.404;2022-10-16T13:54:00;100745.97;;;17.40;38.14
24620;BME280;12763;55.802;37.404;2022-10-16T13:56:29;100740.72;;;16.78;38.98
24620;BME280;12763;55.802;37.404;2022-10-16T13:59:06;100753.09;;;16.08;40.37
24620;BME280;12763;55.802;37.404;2022-10-16T14:01:41;100760.69;;;15.94;41.03
24620;BME280;12763;55.802;37.404;2022-10-16T14:04:11;100747.41;;;15.96;40.93
24620;BME280;12763;55.802;37.404;2022-10-16T14:06:44;100756.34;;;16.29;40.72
24620;BME280;12763;55.802;37.404;2022-10-16T14:09:33;100745.16;;;16.11;41.00
24620;BME280;12763;55.802;37.404;2022-10-16T14:12:07;100745.72;;;15.88;41.21
24620;BME280;12763;55.802;37.404;2022-10-16T14:14:40;100749.56;;;15.56;42.00
24620;BME280;12763;55.802;37.404;2022-10-16T14:17:31;100751.44;;;15.18;43.09
24620;BME280;12763;55.802;37.404;2022-10-16T14:20:14;100753.66;;;14.96;43.61
24620;BME280;12763;55.802;37.404;2022-10-16T14:22:44;100751.78;;;14.64;43.84
24620;BME280;12763;55.802;37.404;2022-10-16T14:25:21;100750.09;;;14.37;44.89
24620;BME280;12763;55.802;37.404;2022-10-16T14:28:05;100740.03;;;14.29;45.60
24620;BME280;12763;55.802;37.404;2022-10-16T14:30:58;100744.72;;;14.29;45.24
24620;BME280;12763;55.802;37.404;2022-10-16T14:33:31;100749.66;;;14.13;45.25
24620;BME280;12763;55.802;37.404;2022-10-16T14:36:13;100743.84;;;14.08;46.17
24620;BME280;12763;55.802;37.404;2022-10-16T14:41:58;100749.41;;;13.95;45.81
24620;BME280;12763;55.802;37.404;2022-10-16T14:44:29;100751.53;;;13.80;46.37
24620;BME280;12763;55.802;37.404;2022-10-16T14:46:57;100745.50;;;13.70;46.34
24620;BME280;12763;55.802;37.404;2022-10-16T14:49:25;100734.81;;;13.54;46.72
24620;BME280;12763;55.802;37.404;2022-10-16T14:52:04;100755.75;;;13.63;46.48
24620;BME280;12763;55.802;37.404;2022-10-16T14:54:34;100759.50;;;13.36;48.08
24620;BME280;12763;55.802;37.404;2022-10-16T14:57:00;100755.81;;;12.88;48.48
24620;BME280;12763;55.802;37.404;2022-10-16T14:59:39;100754.94;;;12.87;49.39
24620;BME280;12763;55.802;37.404;2022-10-16T15:04:48;100753.84;;;12.82;48.77
24620;BME280;12763;55.802;37.404;2022-10-16T15:07:23;100754.78;;;13.30;48.08
24620;BME280;12763;55.802;37.404;2022-10-16T15:09:50;100760.56;;;13.35;47.98
24620;BME280;12763;55.802;37.404;2022-10-16T15:12:23;100768.78;;;13.15;48.81
24620;BME280;12763;55.802;37.404;2022-10-16T15:14:50;100761.16;;;13.24;48.30
24620;BME280;12763;55.802;37.404;2022-10-16T15:17:19;100760.22;;;13.10;48.71
24620;BME280;12763;55.802;37.404;2022-10-16T15:19:45;100762.75;;;13.05;49.15